Time;durP1;ratioP1;P1;durP2;ratioP2;P2;SDS_P1;SDS_P2;PMS_P1;PMS_P2;Temp;Humidity;BMP_temperature;BMP_pressure;BME280_temperature;BME280_humidity;BME280_pressure;Samples;Min_cycle;Max_cycle;Signal;HPM_P1;HPM_P2
2023/12/25 00:01:54;;;;;;;5.93;1.70;;;;;;;8.97;78.20;92678.63;2058897;69;20176;-83
2023/12/25 00:04:19;;;;;;;3.00;1.80;;;;;;;8.84;78.53;92682.72;2065155;69;20145;-81
2023/12/25 00:06:45;;;;;;;3.55;1.80;;;;;;;8.97;78.09;92683.50;2065012;69;20137;-81
2023/12/25 00:09:11;;;;;;;2.35;1.85;;;;;;;9.06;77.24;92682.69;2064601;69;20148;-82
2023/12/25 00:11:36;;;;;;;2.67;1.60;;;;;;;9.02;78.13;92671.19;2065173;69;20145;-82
2023/12/25 00:14:02;;;;;;;2.97;1.92;;;;;;;9.12;76.98;92649.41;2064407;69;20141;-82
2023/12/25 00:16:27;;;;;;;2.67;1.70;;;;;;;9.03;78.09;92655.84;2064972;69;20215;-81
2023/12/25 00:18:55;;;;;;;3.13;1.80;;;;;;;9.23;77.01;92668.38;2064617;69;20168;-82
2023/12/25 00:21:20;;;;;;;4.13;1.70;;;;;;;9.19;77.36;92650.53;2065202;69;20236;-84
2023/12/25 00:23:46;;;;;;;3.72;1.98;;;;;;;8.99;78.41;92664.72;2064557;69;20244;-82
2023/12/25 00:26:13;;;;;;;3.05;1.88;;;;;;;8.90;78.56;92665.53;2064453;69;20184;-83
2023/12/25 00:28:39;;;;;;;2.03;1.65;;;;;;;8.96;78.50;92656.75;2065161;69;20632;-82
2023/12/25 00:31:06;;;;;;;3.47;1.88;;;;;;;9.01;78.58;92647.25;2061877;69;20190;-81
2023/12/25 00:33:32;;;;;;;2.08;1.50;;;;;;;9.12;78.05;92647.34;2064568;69;20144;-80
2023/12/25 00:35:57;;;;;;;2.10;1.58;;;;;;;8.82;79.89;92653.75;2064434;69;20137;-79
2023/12/25 00:38:23;;;;;;;2.15;1.30;;;;;;;8.98;79.77;92652.03;2064957;69;20173;-81
2023/12/25 00:40:49;;;;;;;3.40;1.38;;;;;;;9.07;79.00;92659.66;2064518;69;20232;-82
2023/12/25 00:43:14;;;;;;;2.78;1.70;;;;;;;8.88;78.97;92649.25;2065095;69;20147;-80
2023/12/25 00:45:40;;;;;;;1.90;1.35;;;;;;;8.93;77.98;92657.97;2065049;69;20224;-81
2023/12/25 00:48:06;;;;;;;3.10;1.40;;;;;;;8.98;78.06;92652.03;2065003;69;20231;-80
2023/12/25 00:50:31;;;;;;;3.17;1.52;;;;;;;9.01;78.51;92645.19;2068302;69;20251;-81
2023/12/25 00:52:57;;;;;;;2.50;1.60;;;;;;;9.07;77.93;92637.19;2064586;69;20152;-77
2023/12/25 00:55:22;;;;;;;3.40;1.20;;;;;;;9.09;78.42;92645.72;2065139;69;20588;-81
2023/12/25 00:57:48;;;;;;;1.67;1.20;;;;;;;8.94;78.97;92648.22;2065061;69;20205;-79
2023/12/25 01:00:14;;;;;;;2.30;1.20;;;;;;;9.07;79.36;92656.84;2068456;69;20149;-80
2023/12/25 01:02:39;;;;;;;2.05;1.40;;;;;;;8.83;79.42;92644.72;2068382;69;20164;-78
2023/12/25 01:05:05;;;;;;;2.13;1.13;;;;;;;9.08;78.36;92663.19;2062410;69;20675;-81
2023/12/25 01:07:32;;;;;;;2.17;1.40;;;;;;;9.03;78.26;92662.19;2068379;69;20148;-80
2023/12/25 01:09:58;;;;;;;3.00;1.15;;;;;;;9.07;78.72;92658.88;2065696;69;20147;-80
2023/12/25 01:12:23;;;;;;;3.25;1.13;;;;;;;9.18;78.86;92654.69;2065550;69;20140;-81
2023/12/25 01:14:49;;;;;;;2.85;1.20;;;;;;;9.22;78.82;92657.75;2064926;69;20500;-83
2023/12/25 01:17:15;;;;;;;2.97;1.08;;;;;;;9.06;79.15;92652.53;2068605;69;20254;-80
2023/12/25 01:19:40;;;;;;;1.60;1.38;;;;;;;9.03;79.51;92653.03;2068982;69;20254;-80
2023/12/25 01:22:07;;;;;;;2.58;1.40;;;;;;;9.15;77.83;92643.31;2062713;69;20268;-80
2023/12/25 01:24:33;;;;;;;2.58;1.40;;;;;;;9.14;78.78;92649.53;2068658;69;20280;-84
2023/12/25 01:26:58;;;;;;;1.40;1.10;;;;;;;9.21;78.10;92657.03;2068609;69;20172;-82
2023/12/25 01:29:24;;;;;;;1.77;1.05;;;;;;;9.19;78.29;92654.06;2062580;69;20153;-82
2023/12/25 01:31:49;;;;;;;1.52;0.98;;;;;;;9.04;78.78;92646.81;2065589;69;20152;-82
2023/12/25 01:34:15;;;;;;;1.65;1.08;;;;;;;9.20;78.52;92635.88;2061758;69;20864;-81
2023/12/25 01:36:41;;;;;;;1.80;1.30;;;;;;;9.10;78.33;92633.16;2065178;69;20609;-82
2023/12/25 01:39:07;;;;;;;3.10;1.20;;;;;;;9.01;78.82;92641.66;2058532;69;20509;-80
2023/12/25 01:41:32;;;;;;;2.08;1.40;;;;;;;8.87;79.56;92636.56;2064592;69;20148;-83
2023/12/25 01:43:58;;;;;;;3.83;1.17;;;;;;;8.98;79.20;92646.41;2061799;69;20706;-83
2023/12/25 01:46:24;;;;;;;1.30;1.13;;;;;;;9.19;78.64;92653.34;2065058;69;20168;-83
2023/12/25 01:48:51;;;;;;;1.48;1.02;;;;;;;9.31;78.17;92646.44;2061535;69;20521;-82
2023/12/25 01:51:19;;;;;;;1.27;0.90;;;;;;;9.01;80.34;92648.00;2061809;69;20145;-82
2023/12/25 01:53:45;;;;;;;1.10;0.88;;;;;;;9.24;79.16;92657.88;2061783;69;20608;-82
2023/12/25 01:56:11;;;;;;;3.10;0.98;;;;;;;9.05;79.77;92647.53;2062008;69;20692;-81
2023/12/25 01:58:36;;;;;;;1.95;0.90;;;;;;;9.11;79.37;92642.31;2061697;69;20152;-82
2023/12/25 02:01:02;;;;;;;1.10;0.80;;;;;;;9.31;78.43;92642.91;2061604;69;20155;-81
2023/12/25 02:03:28;;;;;;;2.70;1.02;;;;;;;9.35;78.14;92631.94;2061359;69;20145;-81
2023/12/25 02:05:53;;;;;;;1.48;0.80;;;;;;;9.31;79.25;92634.47;2061505;69;20164;-79
2023/12/25 02:08:19;;;;;;;0.90;0.80;;;;;;;9.25;79.35;92642.50;2061393;69;20540;-80
2023/12/25 02:10:45;;;;;;;1.20;0.90;;;;;;;9.25;78.73;92631.97;2064921;69;20141;-80
2023/12/25 02:13:11;;;;;;;1.25;1.10;;;;;;;8.85;79.57;92628.03;2061321;69;20145;-78
2023/12/25 02:15:39;;;;;;;1.73;1.10;;;;;;;9.02;79.36;92632.63;2064867;69;20165;-80
2023/12/25 02:18:05;;;;;;;3.08;1.00;;;;;;;9.18;79.02;92624.53;2061454;69;20228;-80
2023/12/25 02:20:33;;;;;;;1.33;0.93;;;;;;;9.07;79.09;92628.75;2064916;69;20137;-81
2023/12/25 02:23:04;;;;;;;2.17;0.90;;;;;;;9.14;79.02;92618.63;2064756;69;20266;-81
2023/12/25 02:25:36;;;;;;;1.67;0.95;;;;;;;9.26;79.18;92627.84;2064972;69;20190;-80
2023/12/25 02:28:03;;;;;;;1.83;0.90;;;;;;;9.11;80.93;92622.66;2064787;69;20145;-80
2023/12/25 02:30:30;;;;;;;1.15;0.68;;;;;;;9.28;79.09;92619.53;2061472;69;20176;-80
2023/12/25 02:32:57;;;;;;;1.25;0.90;;;;;;;9.28;78.80;92616.75;2061479;69;20149;-79
2023/12/25 02:35:22;;;;;;;1.27;0.90;;;;;;;9.39;77.92;92621.69;2064828;69;20180;-78
2023/12/25 02:37:48;;;;;;;1.52;1.02;;;;;;;9.34;78.17;92628.34;2061522;69;20231;-80
2023/12/25 02:40:14;;;;;;;2.35;1.00;;;;;;;9.10;79.00;92612.75;2061575;69;20576;-79
2023/12/25 02:42:40;;;;;;;2.22;0.93;;;;;;;9.31;78.73;92612.72;2061561;69;20141;-77
2023/12/25 02:45:06;;;;;;;0.70;0.70;;;;;;;9.24;78.77;92596.81;2061646;69;20159;-78
2023/12/25 02:47:31;;;;;;;1.30;0.90;;;;;;;9.23;78.57;92595.34;2058581;69;20583;-78
2023/12/25 02:49:57;;;;;;;3.70;0.90;;;;;;;9.33;78.25;92581.22;2061215;69;20226;-81
2023/12/25 02:52:23;;;;;;;0.85;0.80;;;;;;;9.27;79.05;92586.47;2061429;69;20161;-81
2023/12/25 02:54:49;;;;;;;1.38;0.90;;;;;;;9.29;78.62;92581.69;2061382;69;20260;-81
2023/12/25 02:57:15;;;;;;;1.10;0.70;;;;;;;9.30;78.60;92583.16;2064713;69;20140;-80
2023/12/25 02:59:41;;;;;;;1.50;0.90;;;;;;;9.20;77.97;92567.72;2065391;69;20145;-82
2023/12/25 03:02:07;;;;;;;1.63;0.90;;;;;;;9.38;77.65;92571.69;2065342;69;20576;-83
2023/12/25 03:04:33;;;;;;;1.08;0.88;;;;;;;9.24;78.03;92574.34;2066351;69;20291;-84
2023/12/25 03:06:58;;;;;;;1.60;1.10;;;;;;;9.29;78.05;92566.91;2068196;69;20148;-83
2023/12/25 03:09:24;;;;;;;1.00;0.70;;;;;;;9.33;78.12;92581.22;2065097;69;20183;-83
2023/12/25 03:11:50;;;;;;;2.45;0.90;;;;;;;9.25;78.15;92589.84;2068487;69;20144;-80
2023/12/25 03:14:16;;;;;;;1.48;0.70;;;;;;;9.26;78.16;92563.25;2068638;69;20186;-82
2023/12/25 03:16:43;;;;;;;0.60;0.60;;;;;;;9.29;78.03;92573.25;2068502;69;20207;-82
2023/12/25 03:19:09;;;;;;;1.98;0.90;;;;;;;9.42;77.07;92577.56;2065144;69;20160;-81
2023/12/25 03:21:34;;;;;;;1.40;0.80;;;;;;;9.35;77.16;92575.72;2068436;69;20192;-82
2023/12/25 03:24:00;;;;;;;0.93;0.90;;;;;;;9.34;77.47;92572.16;2068478;69;20148;-83
2023/12/25 03:26:25;;;;;;;2.60;0.80;;;;;;;9.49;77.25;92565.38;2068445;69;20675;-83
2023/12/25 03:28:51;;;;;;;1.02;0.80;;;;;;;9.38;77.20;92572.44;2068229;69;20144;-80
2023/12/25 03:31:17;;;;;;;2.95;0.70;;;;;;;9.43;77.17;92560.09;2062022;69;20153;-82
2023/12/25 03:33:43;;;;;;;1.10;0.73;;;;;;;9.41;77.70;92562.78;2068428;69;20596;-82
2023/12/25 03:36:08;;;;;;;1.05;0.80;;;;;;;9.43;77.67;92560.09;2065125;69;20215;-82
2023/12/25 03:38:35;;;;;;;2.58;0.70;;;;;;;9.42;77.61;92544.59;2067993;69;20156;-83
2023/12/25 03:41:00;;;;;;;1.20;0.70;;;;;;;9.40;78.85;92552.91;2068418;69;20141;-83
2023/12/25 03:43:26;;;;;;;1.00;0.80;;;;;;;9.35;78.54;92544.84;2062361;69;20156;-83
2023/12/25 03:45:53;;;;;;;1.95;0.80;;;;;;;9.14;79.74;92537.19;2068314;69;20152;-83
2023/12/25 03:48:20;;;;;;;0.95;0.85;;;;;;;9.40;78.51;92540.94;2064955;69;20180;-83
2023/12/25 03:50:46;;;;;;;2.88;0.70;;;;;;;9.52;77.67;92543.75;2068522;69;20144;-83
2023/12/25 03:53:12;;;;;;;3.20;1.35;;;;;;;9.30;79.29;92549.47;2065121;69;20219;-84
2023/12/25 03:55:42;;;;;;;1.35;0.90;;;;;;;9.39;79.00;92551.44;2068457;69;20666;-83
2023/12/25 03:58:07;;;;;;;2.17;0.90;;;;;;;9.16;79.57;92548.53;2064780;69;20137;-83
2023/12/25 04:00:35;;;;;;;1.15;0.70;;;;;;;9.41;78.63;92536.78;2064831;69;20600;-82
2023/12/25 04:03:01;;;;;;;0.57;0.57;;;;;;;9.38;78.51;92544.34;2065219;69;20618;-83
2023/12/25 04:05:26;;;;;;;0.60;0.60;;;;;;;9.56;77.95;92546.81;2065266;69;20149;-80
2023/12/25 04:07:52;;;;;;;0.93;0.75;;;;;;;9.60;77.20;92541.44;2065087;69;20224;-83
2023/12/25 04:10:18;;;;;;;1.08;0.70;;;;;;;9.47;78.00;92533.59;2064711;69;20596;-82
2023/12/25 04:12:44;;;;;;;0.82;0.70;;;;;;;9.38;78.20;92521.13;2068146;69;20156;-82
2023/12/25 04:15:09;;;;;;;0.70;0.50;;;;;;;9.41;77.79;92536.78;2068403;69;20180;-81
2023/12/25 04:17:35;;;;;;;0.90;0.88;;;;;;;9.53;77.87;92517.88;2065123;69;20214;-82
2023/12/25 04:20:02;;;;;;;1.80;0.65;;;;;;;9.60;77.37;92522.50;2064841;69;20148;-82
2023/12/25 04:22:27;;;;;;;1.83;0.80;;;;;;;9.22;78.13;92514.50;2065101;69;20265;-81
2023/12/25 04:24:53;;;;;;;0.70;0.63;;;;;;;9.54;77.40;92522.13;2065145;69;20141;-81
2023/12/25 04:27:19;;;;;;;0.90;0.77;;;;;;;9.55;77.53;92520.06;2068245;69;20543;-82
2023/12/25 04:29:46;;;;;;;2.95;0.70;;;;;;;9.54;78.30;92533.38;2064746;69;20513;-82
2023/12/25 04:32:12;;;;;;;0.93;0.63;;;;;;;9.50;78.56;92532.41;2062208;69;20148;-83
2023/12/25 04:34:38;;;;;;;1.13;0.50;;;;;;;9.33;78.88;92522.22;2062420;69;20156;-83
2023/12/25 04:37:04;;;;;;;1.08;0.70;;;;;;;9.27;78.80;92524.66;2065037;69;20764;-82
2023/12/25 04:39:29;;;;;;;1.17;0.80;;;;;;;9.38;78.13;92529.56;2064907;69;20268;-82
2023/12/25 04:41:57;;;;;;;1.08;0.60;;;;;;;9.55;76.82;92522.88;2068392;69;20169;-82
2023/12/25 04:44:23;;;;;;;0.80;0.60;;;;;;;9.39;77.46;92523.34;2068414;69;20235;-83
2023/12/25 04:46:49;;;;;;;0.95;0.70;;;;;;;9.43;77.42;92520.03;2068153;69;20599;-84
2023/12/25 04:49:14;;;;;;;1.67;0.60;;;;;;;9.40;77.71;92524.06;2068677;69;20189;-83
2023/12/25 04:51:42;;;;;;;1.05;0.75;;;;;;;9.36;77.69;92507.69;2062917;69;20172;-84
2023/12/25 04:54:07;;;;;;;2.22;0.70;;;;;;;9.39;77.99;92517.72;2065992;69;20160;-82
2023/12/25 04:56:34;;;;;;;1.48;0.57;;;;;;;9.37;78.95;92511.97;2065904;69;20140;-82
2023/12/25 04:58:59;;;;;;;3.35;0.77;;;;;;;9.34;79.20;92513.16;2065856;69;20164;-82
2023/12/25 05:01:26;;;;;;;2.08;0.60;;;;;;;9.41;78.18;92512.22;2069641;69;20202;-83
2023/12/25 05:03:51;;;;;;;0.90;0.50;;;;;;;9.43;77.60;92511.59;2069970;69;20180;-81
2023/12/25 05:06:17;;;;;;;2.17;1.00;;;;;;;9.43;77.84;92511.59;2069452;69;20153;-82
2023/12/25 05:08:43;;;;;;;4.72;0.98;;;;;;;9.41;77.71;92500.97;2063269;69;20141;-80
2023/12/25 05:11:08;;;;;;;3.50;1.60;;;;;;;8.84;78.81;92511.47;2066713;69;20241;-81
2023/12/25 05:13:34;;;;;;;2.40;1.42;;;;;;;9.03;78.47;92507.75;2069921;69;20141;-81
2023/12/25 05:16:00;;;;;;;2.28;1.55;;;;;;;9.08;78.37;92505.94;2062908;69;20147;-82
2023/12/25 05:18:25;;;;;;;2.95;0.60;;;;;;;9.13;78.99;92502.75;2070207;69;20616;-83
2023/12/25 05:20:52;;;;;;;0.85;0.52;;;;;;;9.25;78.67;92499.22;2067497;69;20140;-84
2023/12/25 05:23:19;;;;;;;1.17;0.47;;;;;;;9.22;78.94;92498.38;2072920;69;20128;-83
2023/12/25 05:25:45;;;;;;;0.63;0.40;;;;;;;9.15;79.20;92497.25;2069526;69;20592;-83
2023/12/25 05:28:11;;;;;;;1.02;0.60;;;;;;;9.18;80.01;92491.78;2065133;69;20182;-84
2023/12/25 05:30:36;;;;;;;0.88;0.55;;;;;;;9.16;79.59;92484.72;2068724;69;20289;-84
2023/12/25 05:33:03;;;;;;;0.30;0.30;;;;;;;9.13;80.13;92494.34;2065427;69;20645;-83
2023/12/25 05:35:28;;;;;;;0.50;0.50;;;;;;;9.11;80.06;92493.47;2068665;69;20163;-84
2023/12/25 05:37:55;;;;;;;0.43;0.40;;;;;;;9.30;79.02;92503.75;2068349;69;20593;-83
2023/12/25 05:40:22;;;;;;;1.00;0.60;;;;;;;9.20;79.48;92506.69;2068570;69;20133;-84
2023/12/25 05:42:48;;;;;;;1.85;0.85;;;;;;;9.13;78.74;92499.22;2068554;69;20584;-83
2023/12/25 05:45:14;;;;;;;1.73;0.75;;;;;;;9.00;78.61;92497.00;2068549;69;20132;-83
2023/12/25 05:47:40;;;;;;;3.92;0.90;;;;;;;9.12;78.73;92495.69;2068556;69;20365;-83
2023/12/25 05:50:08;;;;;;;1.55;0.80;;;;;;;9.15;78.49;92505.69;2065145;69;20145;-83
2023/12/25 05:52:34;;;;;;;0.57;0.50;;;;;;;8.97;79.79;92493.31;2065014;69;20141;-84
2023/12/25 05:55:01;;;;;;;1.08;0.40;;;;;;;9.04;79.17;92500.78;2068456;69;20263;-83
2023/12/25 05:57:28;;;;;;;1.08;0.60;;;;;;;9.09;78.98;92491.28;2065037;69;20160;-79
2023/12/25 05:59:54;;;;;;;0.50;0.50;;;;;;;9.19;78.08;92488.34;2068452;69;20597;-82
2023/12/25 06:02:20;;;;;;;0.98;0.57;;;;;;;9.23;78.13;92493.50;2068438;69;20176;-83
2023/12/25 06:04:46;;;;;;;0.50;0.50;;;;;;;9.02;79.06;92483.78;2068439;69;20144;-83
2023/12/25 06:07:12;;;;;;;0.57;0.57;;;;;;;9.14;78.26;92493.00;2068424;69;20649;-82
2023/12/25 06:09:38;;;;;;;0.57;0.45;;;;;;;9.17;78.42;92493.88;2068382;69;20137;-82
2023/12/25 06:12:04;;;;;;;0.70;0.50;;;;;;;9.12;78.87;92506.91;2065004;69;20623;-83
2023/12/25 06:14:30;;;;;;;1.52;0.50;;;;;;;9.19;78.68;92493.97;2065042;69;20156;-82
2023/12/25 06:16:56;;;;;;;1.20;0.70;;;;;;;9.40;77.29;92513.56;2068268;69;20141;-83
2023/12/25 06:19:21;;;;;;;2.00;1.30;;;;;;;9.18;77.73;92517.78;2068295;69;20159;-82
2023/12/25 06:21:47;;;;;;;2.38;0.80;;;;;;;9.04;78.16;92494.44;2068383;69;20174;-83
2023/12/25 06:24:13;;;;;;;0.80;0.70;;;;;;;9.24;77.68;92512.53;2064880;69;20517;-83
2023/12/25 06:26:39;;;;;;;1.10;1.00;;;;;;;9.37;76.77;92509.16;2068320;69;20230;-83
2023/12/25 06:29:06;;;;;;;2.05;1.30;;;;;;;9.25;76.64;92507.66;2068282;69;20588;-82
2023/12/25 06:31:31;;;;;;;1.65;1.20;;;;;;;9.00;77.23;92502.59;2068319;69;20183;-80
2023/12/25 06:33:57;;;;;;;5.20;1.23;;;;;;;9.20;76.57;92508.75;2062039;69;20228;-83
2023/12/25 06:36:23;;;;;;;1.77;0.88;;;;;;;9.24;77.53;92490.06;2064984;69;20174;-83
2023/12/25 06:38:50;;;;;;;2.20;0.57;;;;;;;9.21;77.24;92482.13;2068213;69;20172;-83
2023/12/25 06:41:16;;;;;;;0.50;0.50;;;;;;;9.28;76.96;92484.72;2068289;69;20144;-84
2023/12/25 06:43:41;;;;;;;1.05;0.60;;;;;;;9.24;76.89;92473.22;2068354;69;20223;-83
2023/12/25 06:46:07;;;;;;;1.90;0.50;;;;;;;9.16;77.33;92484.72;2068408;69;20156;-83
2023/12/25 06:48:32;;;;;;;1.63;1.08;;;;;;;9.23;76.86;92499.84;2068189;69;20227;-84
2023/12/25 06:51:00;;;;;;;2.28;0.65;;;;;;;9.15;77.58;92494.44;2062432;69;20148;-83
2023/12/25 06:53:25;;;;;;;2.22;0.68;;;;;;;9.16;77.59;92479.09;2068166;69;20153;-84
2023/12/25 06:55:51;;;;;;;3.45;0.73;;;;;;;9.14;77.29;92493.00;2068214;69;20149;-82
2023/12/25 06:58:16;;;;;;;5.25;2.97;;;;;;;8.92;77.02;92494.41;2068238;69;20198;-84
2023/12/25 07:00:42;;;;;;;6.93;3.08;;;;;;;8.90;77.62;92497.09;2064931;69;20141;-83
2023/12/25 07:03:08;;;;;;;5.80;3.08;;;;;;;9.04;77.14;92500.06;2068233;69;20180;-80
2023/12/25 07:05:33;;;;;;;3.90;2.30;;;;;;;9.09;76.50;92502.50;2068228;69;20149;-82
2023/12/25 07:07:59;;;;;;;4.20;2.50;;;;;;;8.71;78.28;92517.63;2068216;69;20164;-81
2023/12/25 07:10:24;;;;;;;8.82;5.03;;;;;;;8.89;77.59;92507.59;2068225;69;20140;-80
2023/12/25 07:12:50;;;;;;;7.53;4.40;;;;;;;8.95;77.34;92507.22;2068249;69;20144;-80
2023/12/25 07:15:16;;;;;;;2.83;1.70;;;;;;;8.96;77.92;92510.78;2068405;69;20295;-81
2023/12/25 07:17:42;;;;;;;3.70;1.40;;;;;;;9.03;77.74;92504.22;2065000;69;20145;-80
2023/12/25 07:20:08;;;;;;;7.10;4.30;;;;;;;8.55;78.72;92500.47;2068602;69;20137;-80
2023/12/25 07:22:36;;;;;;;8.52;5.80;;;;;;;8.49;78.90;92522.53;2068218;69;20141;-81
2023/12/25 07:25:05;;;;;;;13.38;8.43;;;;;;;8.73;78.35;92517.75;2068046;69;20156;-78
2023/12/25 07:27:32;;;;;;;6.00;3.70;;;;;;;8.88;78.13;92522.94;2068160;69;20199;-79
2023/12/25 07:29:58;;;;;;;5.30;3.65;;;;;;;8.95;77.75;92534.56;2064904;69;20206;-83
2023/12/25 07:32:28;;;;;;;5.68;3.88;;;;;;;8.96;77.86;92513.56;2064542;69;20149;-84
2023/12/25 07:34:55;;;;;;;4.70;2.60;;;;;;;9.06;77.71;92519.81;2068211;69;20129;-82
2023/12/25 07:37:20;;;;;;;3.20;1.98;;;;;;;8.73;80.09;92522.63;2067903;69;20139;-82
2023/12/25 07:39:46;;;;;;;5.82;3.97;;;;;;;8.91;78.75;92530.16;2068447;69;20147;-84
2023/12/25 07:42:12;;;;;;;9.40;6.32;;;;;;;9.05;77.38;92516.28;2062098;69;20155;-84
2023/12/25 07:44:40;;;;;;;2.80;2.20;;;;;;;8.94;78.75;92508.56;2068478;69;20572;-86
2023/12/25 07:47:07;;;;;;;1.45;1.00;;;;;;;9.40;75.69;92530.44;2065373;69;20157;-84
2023/12/25 07:49:33;;;;;;;11.25;6.85;;;;;;;8.33;78.02;92538.25;2068669;69;20199;-84
2023/12/25 07:51:59;;;;;;;11.27;6.72;;;;;;;8.82;77.59;92536.59;2068620;69;20238;-84
2023/12/25 07:54:26;;;;;;;10.65;6.40;;;;;;;9.05;76.53;92547.19;2068673;69;20587;-83
2023/12/25 07:56:52;;;;;;;9.20;4.65;;;;;;;9.13;76.60;92532.94;2068471;69;20141;-84
2023/12/25 07:59:20;;;;;;;2.65;1.92;;;;;;;9.20;76.50;92536.84;2068428;69;20136;-83
2023/12/25 08:01:46;;;;;;;13.95;7.15;;;;;;;9.11;75.92;92538.41;2062563;69;20168;-83
2023/12/25 08:04:12;;;;;;;7.22;4.40;;;;;;;9.20;76.48;92553.69;2068606;69;20588;-83
2023/12/25 08:06:37;;;;;;;10.57;4.85;;;;;;;9.36;75.44;92549.84;2065304;69;20140;-82
2023/12/25 08:09:03;;;;;;;9.43;5.20;;;;;;;9.45;75.47;92539.84;2068613;69;20580;-82
2023/12/25 08:11:29;;;;;;;4.03;2.70;;;;;;;9.52;75.98;92544.47;2068679;69;20156;-79
2023/12/25 08:13:55;;;;;;;1.27;1.00;;;;;;;9.67;75.41;92549.66;2068656;69;20147;-79
2023/12/25 08:16:20;;;;;;;9.50;5.75;;;;;;;9.24;76.08;92542.72;2068619;69;20186;-82
2023/12/25 08:18:48;;;;;;;9.25;5.38;;;;;;;9.60;75.31;92549.88;2068683;69;20661;-82
2023/12/25 08:21:13;;;;;;;6.82;4.20;;;;;;;9.75;75.07;92545.84;2068654;69;20252;-80
2023/12/25 08:23:44;;;;;;;5.38;3.38;;;;;;;9.78;74.91;92548.19;2065184;69;20647;-83
2023/12/25 08:26:09;;;;;;;2.05;1.50;;;;;;;9.96;73.18;92528.16;2062692;69;20282;-81
2023/12/25 08:28:37;;;;;;;2.90;1.67;;;;;;;10.10;71.64;92546.59;2068589;69;20252;-83
2023/12/25 08:31:04;;;;;;;3.10;1.73;;;;;;;10.28;70.85;92532.19;2068810;69;20129;-84
2023/12/25 08:33:33;;;;;;;2.42;1.40;;;;;;;10.30;71.67;92509.78;2068630;69;20145;-83
2023/12/25 08:35:59;;;;;;;3.67;2.17;;;;;;;10.02;71.66;92532.03;2068785;69;20198;-84
2023/12/25 08:38:24;;;;;;;3.72;2.25;;;;;;;10.27;70.70;92539.16;2066568;69;20160;-80
2023/12/25 08:40:50;;;;;;;4.30;1.70;;;;;;;10.57;70.09;92518.41;2068958;69;20144;-81
2023/12/25 08:43:15;;;;;;;2.17;1.30;;;;;;;10.77;69.67;92524.50;2071068;69;20148;-80
2023/12/25 08:45:41;;;;;;;2.78;1.63;;;;;;;10.76;69.92;92531.44;2069078;69;20168;-77
2023/12/25 08:48:07;;;;;;;3.20;1.60;;;;;;;10.93;69.72;92531.03;2069506;69;20516;-80
2023/12/25 08:50:32;;;;;;;2.60;1.55;;;;;;;11.02;68.89;92523.03;2072072;69;20188;-77
2023/12/25 08:52:59;;;;;;;2.28;1.40;;;;;;;11.06;67.83;92528.91;2071935;69;20597;-78
2023/12/25 08:55:25;;;;;;;4.57;2.60;;;;;;;11.00;67.72;92542.66;2066315;69;20129;-79
2023/12/25 08:57:50;;;;;;;2.47;1.98;;;;;;;11.33;68.15;92531.13;2068469;69;20133;-78
2023/12/25 09:00:16;;;;;;;5.65;3.17;;;;;;;11.33;67.64;92533.94;2069388;69;20143;-80
2023/12/25 09:02:42;;;;;;;6.65;3.42;;;;;;;11.67;68.45;92535.78;2070790;69;20171;-82
2023/12/25 09:05:08;;;;;;;5.60;2.88;;;;;;;11.60;67.25;92542.47;2069359;69;20147;-81
2023/12/25 09:07:33;;;;;;;4.95;2.65;;;;;;;11.71;68.19;92541.66;2069339;69;20144;-79
2023/12/25 09:09:59;;;;;;;3.30;2.00;;;;;;;12.75;65.89;92546.34;2067461;69;20592;-83
2023/12/25 09:12:25;;;;;;;3.53;2.58;;;;;;;12.62;66.25;92552.75;2070312;69;20149;-81
2023/12/25 09:14:52;;;;;;;4.00;2.20;;;;;;;12.85;67.02;92541.19;2065183;69;20199;-82
2023/12/25 09:17:18;;;;;;;5.28;3.30;;;;;;;12.83;64.82;92552.41;2068610;69;20152;-82
2023/12/25 09:19:47;;;;;;;10.90;3.10;;;;;;;13.43;65.88;92545.47;2068695;69;20157;-82
2023/12/25 09:22:12;;;;;;;8.82;5.57;;;;;;;13.63;61.84;92536.47;2062306;69;20238;-82
2023/12/25 09:24:38;;;;;;;7.70;4.53;;;;;;;13.18;62.85;92560.47;2065117;69;20596;-82
2023/12/25 09:27:04;;;;;;;5.15;3.58;;;;;;;13.58;64.87;92563.09;2065334;69;20152;-83
2023/12/25 09:29:30;;;;;;;7.22;3.55;;;;;;;13.88;64.53;92558.13;2068597;69;20164;-83
2023/12/25 09:31:55;;;;;;;7.30;3.80;;;;;;;14.34;62.84;92559.53;2068752;69;20214;-83
2023/12/25 09:34:21;;;;;;;6.00;2.92;;;;;;;14.28;62.41;92552.84;2068457;69;20155;-84
2023/12/25 09:36:47;;;;;;;6.13;2.63;;;;;;;13.80;64.13;92572.66;2068491;69;20140;-83
2023/12/25 09:39:12;;;;;;;5.47;2.60;;;;;;;14.43;63.29;92564.19;2068372;69;20145;-84
2023/12/25 09:41:40;;;;;;;3.58;2.47;;;;;;;14.14;61.54;92572.78;2068432;69;20137;-84
2023/12/25 09:44:07;;;;;;;2.80;1.77;;;;;;;14.53;63.45;92585.88;2064842;69;20627;-83
2023/12/25 09:46:33;;;;;;;4.40;2.78;;;;;;;14.60;61.60;92576.25;2065081;69;20151;-81
2023/12/25 09:48:59;;;;;;;9.00;4.57;;;;;;;14.27;62.12;92588.22;2065149;69;20178;-84
2023/12/25 09:51:27;;;;;;;4.55;3.45;;;;;;;14.52;60.77;92573.06;2068558;69;20611;-85
2023/12/25 09:53:53;;;;;;;8.35;3.05;;;;;;;14.66;59.75;92574.44;2062317;69;20153;-83
2023/12/25 09:56:21;;;;;;;9.82;5.80;;;;;;;13.89;61.34;92587.91;2062349;69;20145;-84
2023/12/25 09:58:48;;;;;;;7.18;4.97;;;;;;;14.05;62.07;92568.09;2065054;69;20164;-82
2023/12/25 10:01:15;;;;;;;6.82;4.35;;;;;;;14.55;62.59;92561.19;2068378;69;20234;-82
2023/12/25 10:03:46;;;;;;;6.07;3.58;;;;;;;15.35;61.24;92559.59;2068373;69;20160;-82
2023/12/25 10:06:12;;;;;;;4.35;3.10;;;;;;;15.20;57.22;92554.72;2068406;69;20148;-84
2023/12/25 10:08:39;;;;;;;3.22;2.30;;;;;;;15.54;57.29;92546.88;2064769;69;20147;-85
2023/12/25 10:11:13;;;;;;;4.70;3.13;;;;;;;15.95;56.81;92549.22;2068369;69;20144;-79
2023/12/25 10:13:42;;;;;;;5.45;4.00;;;;;;;15.62;56.86;92567.06;2068370;69;20141;-82
2023/12/25 10:16:07;;;;;;;5.95;3.20;;;;;;;16.49;55.58;92549.84;2065082;69;20137;-87
2023/12/25 10:18:38;;;;;;;4.75;2.75;;;;;;;16.79;54.60;92549.47;2068349;69;20141;-85
2023/12/25 10:21:05;;;;;;;7.07;3.17;;;;;;;16.05;56.79;92568.03;2068341;69;20218;-83
2023/12/25 10:23:34;;;;;;;5.50;3.70;;;;;;;17.28;55.70;92540.53;2064820;69;20157;-82
2023/12/25 10:26:03;;;;;;;3.33;2.35;;;;;;;17.94;51.08;92534.81;2068311;69;20206;-81
2023/12/25 10:28:31;;;;;;;4.20;2.80;;;;;;;18.64;51.02;92531.16;2064965;69;20156;-82
2023/12/25 10:31:02;;;;;;;4.75;2.15;;;;;;;19.79;48.98;92527.06;2068113;69;20132;-82
2023/12/25 10:33:29;;;;;;;3.70;3.10;;;;;;;18.17;49.50;92524.81;2064976;69;20570;-82
2023/12/25 10:36:14;;;;;;;3.50;2.60;;;;;;;20.18;49.06;92514.38;2068339;69;20144;-81
2023/12/25 10:38:42;;;;;;;2.97;2.30;;;;;;;20.62;45.82;92504.59;2064907;69;20192;-82
2023/12/25 10:41:18;;;;;;;4.05;2.60;;;;;;;20.82;46.67;92507.88;2068289;69;20222;-82
2023/12/25 10:43:51;;;;;;;3.45;2.50;;;;;;;21.57;44.42;92508.56;2068282;69;20148;-79
2023/12/25 10:46:22;;;;;;;3.05;2.25;;;;;;;21.95;44.93;92508.47;2064952;69;20140;-77
2023/12/25 10:48:53;;;;;;;3.88;2.67;;;;;;;23.45;44.38;92497.47;2064874;69;20176;-84
2023/12/25 10:51:31;;;;;;;1.95;1.60;;;;;;;24.00;40.79;92509.47;2068416;69;20133;-81
2023/12/25 10:54:04;;;;;;;3.10;2.53;;;;;;;24.49;41.10;92500.47;2068136;69;20181;-79
2023/12/25 10:56:35;;;;;;;3.35;2.30;;;;;;;24.01;41.34;92513.09;2068219;69;20172;-83
2023/12/25 10:59:25;;;;;;;3.78;2.72;;;;;;;25.76;40.23;92511.06;2068278;69;20152;-81
2023/12/25 11:01:52;;;;;;;5.05;2.90;;;;;;;26.55;37.52;92513.22;2063842;69;20164;-81
2023/12/25 11:04:21;;;;;;;2.95;2.15;;;;;;;26.98;36.55;92513.09;2068207;69;20176;-80
2023/12/25 11:06:47;;;;;;;2.20;1.70;;;;;;;27.04;35.85;92510.19;2068213;69;20133;-80
2023/12/25 11:09:22;;;;;;;2.40;1.70;;;;;;;24.81;37.60;92505.69;2068098;69;20156;-80
2023/12/25 11:11:51;;;;;;;4.03;2.53;;;;;;;22.50;40.08;92494.22;2064922;69;20145;-82
2023/12/25 11:14:17;;;;;;;5.55;3.25;;;;;;;18.85;47.23;92476.16;2068181;69;20156;-80
2023/12/25 11:16:43;;;;;;;5.45;3.38;;;;;;;19.94;45.80;92476.72;2068205;69;20532;-81
2023/12/25 11:19:09;;;;;;;4.75;3.28;;;;;;;19.88;46.25;92471.56;2062238;69;20141;-80
2023/12/25 11:21:34;;;;;;;5.57;3.42;;;;;;;19.27;46.31;92481.50;2068704;69;20148;-80
2023/12/25 11:24:05;;;;;;;6.00;3.80;;;;;;;19.17;47.15;92476.28;2068556;69;20240;-79
2023/12/25 11:26:31;;;;;;;5.82;3.90;;;;;;;19.04;47.15;92475.25;2068771;69;20626;-80
2023/12/25 11:29:07;;;;;;;5.40;4.00;;;;;;;18.31;47.82;92478.94;2068587;69;20144;-79
2023/12/25 11:31:46;;;;;;;5.53;3.97;;;;;;;17.66;49.54;92474.13;2068739;69;20612;-81
2023/12/25 11:34:23;;;;;;;7.43;4.00;;;;;;;17.70;50.28;92474.97;2068817;69;20220;-81
2023/12/25 11:36:56;;;;;;;9.73;4.40;;;;;;;17.03;51.75;92467.84;2068863;69;20608;-88